Time;durP1;ratioP1;P1;durP2;ratioP2;P2;SDS_P1;SDS_P2;PMS_P1;PMS_P2;Temp;Humidity;BMP_temperature;BMP_pressure;BME280_temperature;BME280_humidity;BME280_pressure;Samples;Min_cycle;Max_cycle;Signal;HPM_P1;HPM_P2
2022/09/27 00:01:09;;;;;;;1.40;1.30;;;;;;;11.96;75.64;96384.69;4967531;28;20053;-87
2022/09/27 00:03:36;;;;;;;2.13;1.20;;;;;;;11.89;75.32;96381.50;4971155;28;20081;-87
2022/09/27 00:06:21;;;;;;;2.78;1.65;;;;;;;11.81;74.36;96385.34;4971894;28;20050;-87
2022/09/27 00:08:48;;;;;;;1.42;1.30;;;;;;;11.76;75.00;96383.44;4973767;28;20043;-88
2022/09/27 00:11:38;;;;;;;4.40;1.67;;;;;;;11.74;74.38;96384.72;4971400;28;20059;-89
2022/09/27 00:14:07;;;;;;;1.58;1.45;;;;;;;11.79;75.37;96382.16;4971184;28;20145;-87
2022/09/27 00:16:38;;;;;;;1.23;1.13;;;;;;;11.84;75.66;96369.09;4971215;28;20082;-87
2022/09/27 00:19:21;;;;;;;2.90;1.38;;;;;;;11.76;75.45;96378.19;4972615;28;20035;-90
2022/09/27 00:21:49;;;;;;;2.72;1.58;;;;;;;11.75;76.23;96370.53;4972186;28;20047;-88
2022/09/27 00:24:20;;;;;;;2.00;1.65;;;;;;;11.87;76.64;96360.69;4971650;28;20065;-88
2022/09/27 00:26:48;;;;;;;1.95;1.70;;;;;;;11.72;77.58;96361.34;4972057;28;20046;-88
2022/09/27 00:29:18;;;;;;;2.17;1.67;;;;;;;11.65;78.03;96365.22;4974165;28;20041;-87
2022/09/27 00:31:45;;;;;;;2.05;1.50;;;;;;;11.65;77.70;96354.72;4947548;28;20057;-86
2022/09/27 00:34:24;;;;;;;2.10;1.60;;;;;;;11.55;75.92;96365.09;4974453;28;20047;-88
2022/09/27 00:36:52;;;;;;;3.42;2.00;;;;;;;11.42;76.42;96348.72;4972092;28;20050;-86
2022/09/27 00:39:19;;;;;;;3.10;1.98;;;;;;;11.37;75.84;96348.66;4947540;28;20034;-87
2022/09/27 00:41:45;;;;;;;4.60;1.73;;;;;;;11.30;77.19;96339.41;4968703;28;20403;-88
2022/09/27 00:44:24;;;;;;;3.53;2.30;;;;;;;11.29;77.77;96335.97;4971827;28;20047;-88
2022/09/27 00:47:17;;;;;;;2.42;1.80;;;;;;;11.20;78.22;96326.94;4969379;28;20071;-86
2022/09/27 00:50:04;;;;;;;3.42;2.05;;;;;;;11.12;80.21;96320.31;4971074;28;20062;-85
2022/09/27 00:52:45;;;;;;;3.00;2.17;;;;;;;11.14;78.83;96323.47;4968788;28;20376;-87
2022/09/27 00:55:19;;;;;;;3.72;2.17;;;;;;;11.07;80.72;96319.47;4954465;28;20043;-87
2022/09/27 00:57:48;;;;;;;2.60;2.20;;;;;;;11.10;80.72;96330.25;4969757;28;20137;-87
2022/09/27 01:00:16;;;;;;;2.83;2.35;;;;;;;11.08;81.21;96313.16;4973078;28;20047;-87
2022/09/27 01:02:49;;;;;;;3.15;2.08;;;;;;;11.26;81.13;96310.22;4972766;28;20404;-87
2022/09/27 01:05:21;;;;;;;4.22;2.15;;;;;;;11.38;82.86;96310.06;4971212;28;20074;-87
2022/09/27 01:07:48;;;;;;;3.35;2.03;;;;;;;11.40;82.19;96311.41;4969741;28;20708;-88
2022/09/27 01:10:17;;;;;;;4.38;2.00;;;;;;;11.34;81.97;96303.75;4972102;28;20057;-88
2022/09/27 01:13:19;;;;;;;3.38;2.13;;;;;;;11.26;81.33;96299.72;4972588;28;20050;-87
2022/09/27 01:16:13;;;;;;;2.60;1.80;;;;;;;11.13;82.10;96300.91;4966773;28;20410;-88
2022/09/27 01:19:00;;;;;;;2.80;1.55;;;;;;;11.03;80.71;96305.25;4955380;28;20043;-87
2022/09/27 01:21:45;;;;;;;2.80;1.65;;;;;;;10.97;81.09;96307.81;4969498;28;20049;-89
2022/09/27 01:24:43;;;;;;;4.43;1.77;;;;;;;10.87;83.55;96296.41;4948001;29;20130;-86
2022/09/27 01:28:06;;;;;;;1.83;1.40;;;;;;;10.91;82.71;96295.66;4969851;28;20077;-89
2022/09/27 01:30:52;;;;;;;4.47;1.70;;;;;;;10.88;82.66;96296.16;4965485;28;20129;-89
2022/09/27 01:34:07;;;;;;;2.50;1.40;;;;;;;10.82;81.77;96289.28;4963805;28;20054;-88
2022/09/27 01:36:43;;;;;;;2.88;1.70;;;;;;;10.85;83.62;96294.03;4938154;28;20051;-87
2022/09/27 01:39:30;;;;;;;4.07;2.00;;;;;;;10.77;83.37;96291.06;4976353;28;20049;-87
2022/09/27 01:42:21;;;;;;;2.00;1.60;;;;;;;10.83;83.89;96290.06;4967121;28;20074;-86
2022/09/27 01:44:57;;;;;;;;;;;;;;;10.72;83.92;96289.16;4970643;28;20060;-87
2022/09/27 01:47:39;;;;;;;1.88;1.48;;;;;;;10.64;85.09;96272.03;4971999;28;19922;-87
2022/09/27 01:50:15;;;;;;;2.45;1.63;;;;;;;10.57;83.16;96278.50;4971783;28;20600;-86
2022/09/27 01:52:50;;;;;;;2.22;1.70;;;;;;;10.45;83.91;96273.38;4972648;28;20047;-88
2022/09/27 01:55:23;;;;;;;2.05;1.50;;;;;;;10.44;84.02;96277.03;4975365;28;20043;-88
2022/09/27 01:58:02;;;;;;;2.50;1.50;;;;;;;10.47;84.80;96273.13;4973733;28;20047;-87
2022/09/27 02:00:29;;;;;;;2.25;1.35;;;;;;;10.41;84.98;96272.25;4968157;28;20053;-88
2022/09/27 02:03:15;;;;;;;2.25;1.40;;;;;;;10.41;87.73;96280.13;4975061;28;20046;-88
2022/09/27 02:06:26;;;;;;;3.28;1.55;;;;;;;10.44;88.43;96277.81;4975097;28;20051;-88
2022/09/27 02:09:07;;;;;;;2.40;1.60;;;;;;;10.54;87.66;96265.88;4965093;28;20419;-88
2022/09/27 02:11:41;;;;;;;1.83;1.30;;;;;;;10.51;86.55;96258.50;4974231;28;20641;-88
2022/09/27 02:14:23;;;;;;;1.75;1.30;;;;;;;10.45;85.73;96262.88;4973572;28;20049;-89
2022/09/27 02:16:57;;;;;;;2.08;1.20;;;;;;;10.57;87.22;96262.75;4955222;28;20047;-88
2022/09/27 02:19:37;;;;;;;3.58;1.40;;;;;;;10.54;87.42;96247.50;4973897;28;20042;-88
2022/09/27 02:22:22;;;;;;;2.20;1.20;;;;;;;10.60;88.00;96249.16;4974437;28;20575;-88
2022/09/27 02:25:19;;;;;;;2.42;1.15;;;;;;;10.69;88.30;96243.25;4974054;28;20047;-87
2022/09/27 02:28:00;;;;;;;2.78;1.23;;;;;;;10.75;86.67;96249.34;4968115;28;20038;-87
2022/09/27 02:30:26;;;;;;;1.73;1.15;;;;;;;10.76;87.30;96242.28;4955128;29;20472;-88
2022/09/27 02:32:53;;;;;;;1.73;1.00;;;;;;;10.72;86.25;96236.72;4971414;28;20054;-87
2022/09/27 02:35:34;;;;;;;1.08;0.98;;;;;;;10.76;87.25;96244.91;4977462;28;20402;-87
2022/09/27 02:38:05;;;;;;;1.83;1.10;;;;;;;10.68;87.42;96243.50;4974184;28;20121;-88
2022/09/27 02:40:41;;;;;;;1.45;1.10;;;;;;;10.60;88.96;96242.09;4964522;28;20042;-86
2022/09/27 02:43:07;;;;;;;2.63;1.05;;;;;;;10.60;89.10;96238.66;4970513;28;20069;-88
2022/09/27 02:46:05;;;;;;;2.65;1.10;;;;;;;10.51;88.46;96222.59;4960676;28;20050;-87
2022/09/27 02:48:34;;;;;;;2.08;1.10;;;;;;;10.72;89.42;96231.47;4972982;28;20089;-86
2022/09/27 02:51:19;;;;;;;1.10;0.80;;;;;;;10.77;88.38;96239.41;4964394;28;20600;-86
2022/09/27 02:54:34;;;;;;;1.23;1.10;;;;;;;10.81;89.48;96234.47;4969644;28;20050;-87
2022/09/27 02:57:25;;;;;;;1.58;1.00;;;;;;;10.87;89.31;96221.16;4958054;28;20607;-87
2022/09/27 03:00:08;;;;;;;2.25;1.20;;;;;;;10.78;88.50;96230.47;4972784;28;20533;-87
2022/09/27 03:03:02;;;;;;;3.22;1.15;;;;;;;10.77;88.48;96213.16;4973144;28;20058;-87
2022/09/27 03:05:38;;;;;;;1.02;1.00;;;;;;;10.80;88.24;96217.16;4963230;28;20051;-87
2022/09/27 03:08:07;;;;;;;1.15;1.00;;;;;;;10.61;87.77;96203.56;4952025;28;20051;-87
2022/09/27 03:10:34;;;;;;;1.02;0.93;;;;;;;10.68;88.91;96214.66;4973079;28;20440;-87
2022/09/27 03:13:01;;;;;;;0.98;0.95;;;;;;;10.66;88.86;96207.03;4972859;28;20042;-89
2022/09/27 03:15:27;;;;;;;1.42;1.00;;;;;;;10.69;88.72;96217.03;4974536;28;20039;-88
2022/09/27 03:17:54;;;;;;;1.02;0.93;;;;;;;10.61;87.77;96209.59;4955989;28;20482;-88
2022/09/27 03:20:21;;;;;;;1.08;1.00;;;;;;;10.66;88.49;96212.25;4972875;28;20038;-88
2022/09/27 03:22:48;;;;;;;1.25;1.02;;;;;;;10.73;88.56;96217.31;4956217;28;20094;-88
2022/09/27 03:25:15;;;;;;;1.98;1.20;;;;;;;10.57;88.33;96218.19;4973657;28;20082;-89
2022/09/27 03:27:44;;;;;;;1.23;1.00;;;;;;;10.50;88.94;96205.28;4936941;28;20047;-91
2022/09/27 03:30:13;;;;;;;1.42;1.20;;;;;;;10.49;90.26;96221.25;4973778;28;20093;-89
2022/09/27 03:32:43;;;;;;;1.45;1.10;;;;;;;10.55;89.95;96218.44;4974061;28;20045;-90
2022/09/27 03:35:12;;;;;;;2.45;1.00;;;;;;;10.62;89.85;96208.56;4972506;28;20039;-90
2022/09/27 03:37:39;;;;;;;0.88;0.85;;;;;;;10.64;88.76;96203.88;4973843;28;20116;-90
2022/09/27 03:40:08;;;;;;;1.63;0.90;;;;;;;10.61;88.27;96206.16;4956175;28;20043;-90
2022/09/27 03:42:35;;;;;;;2.45;1.13;;;;;;;10.60;88.57;96209.84;4969430;28;20057;-91
2022/09/27 03:45:21;;;;;;;1.02;0.90;;;;;;;10.65;88.57;96204.66;4973726;28;20070;-91
2022/09/27 03:47:55;;;;;;;0.98;0.90;;;;;;;10.62;88.66;96199.91;4970120;28;20055;-91
2022/09/27 03:50:22;;;;;;;5.22;1.20;;;;;;;10.64;89.05;96195.22;4953249;28;20506;-91
2022/09/27 03:52:49;;;;;;;1.23;0.93;;;;;;;10.68;89.04;96191.06;4974069;28;20045;-90
2022/09/27 03:55:15;;;;;;;1.55;1.10;;;;;;;10.69;89.11;96195.28;4952002;28;20150;-91
2022/09/27 03:57:46;;;;;;;2.92;1.30;;;;;;;10.64;89.10;96203.06;4972690;28;20042;-91
2022/09/27 04:00:14;;;;;;;1.13;0.93;;;;;;;10.62;89.01;96197.28;4957974;28;20046;-91
2022/09/27 04:02:42;;;;;;;1.35;0.90;;;;;;;10.62;89.66;96199.91;4974622;28;20403;-91
2022/09/27 04:05:10;;;;;;;1.17;1.08;;;;;;;10.60;90.55;96197.53;4972273;28;20054;-90
2022/09/27 04:07:37;;;;;;;1.20;1.10;;;;;;;10.53;90.00;96186.44;4968534;28;20069;-91
2022/09/27 04:10:04;;;;;;;1.25;1.15;;;;;;;10.61;90.71;96193.84;4955576;28;20047;-91
2022/09/27 04:12:31;;;;;;;1.63;1.08;;;;;;;10.68;90.49;96193.69;4956765;28;20047;-91
2022/09/27 04:14:59;;;;;;;1.50;1.20;;;;;;;10.56;90.15;96179.94;4969344;28;20106;-90
2022/09/27 04:17:26;;;;;;;1.02;0.90;;;;;;;10.60;89.82;96191.50;4974813;28;20558;-90
2022/09/27 04:19:53;;;;;;;3.17;1.77;;;;;;;10.55;90.23;96194.84;4972528;28;20066;-88
2022/09/27 04:22:19;;;;;;;1.67;1.10;;;;;;;10.45;90.46;96190.28;4974341;28;20058;-89
2022/09/27 04:24:46;;;;;;;2.45;1.10;;;;;;;10.41;91.44;96209.34;4971776;28;20126;-90
2022/09/27 04:27:12;;;;;;;1.42;1.15;;;;;;;10.29;91.65;96213.94;4960908;28;20474;-88
2022/09/27 04:29:44;;;;;;;3.03;1.10;;;;;;;10.03;94.99;96218.03;4971240;28;20074;-90
2022/09/27 04:32:12;;;;;;;2.20;0.90;;;;;;;9.92;93.15;96227.56;4974804;28;20490;-89
2022/09/27 04:37:26;;;;;;;1.67;0.98;;;;;;;9.62;93.12;96233.13;4973699;28;20047;-88
2022/09/27 04:39:52;;;;;;;2.47;1.52;;;;;;;9.45;93.35;96227.09;4974562;28;20047;-88
2022/09/27 04:42:19;;;;;;;1.98;1.00;;;;;;;9.48;95.05;96231.88;4969089;28;20058;-88
2022/09/27 04:44:59;;;;;;;2.70;1.17;;;;;;;9.38;94.46;96220.22;4971576;28;20054;-92
2022/09/27 04:47:28;;;;;;;2.80;1.00;;;;;;;9.37;94.26;96221.25;4965576;28;20053;-91
2022/09/27 04:49:55;;;;;;;3.70;1.40;;;;;;;9.38;94.68;96235.91;4973516;28;20407;-91
2022/09/27 04:52:22;;;;;;;3.72;1.20;;;;;;;9.39;93.79;96234.09;4970390;28;20137;-89
2022/09/27 04:54:48;;;;;;;2.53;1.20;;;;;;;9.30;92.75;96228.47;4972610;28;20046;-90
2022/09/27 04:57:15;;;;;;;2.65;1.10;;;;;;;9.34;92.32;96229.56;4972111;28;20059;-92
2022/09/27 04:59:42;;;;;;;3.42;1.48;;;;;;;9.30;93.04;96225.06;4970476;28;20067;-90
2022/09/27 05:02:08;;;;;;;2.40;1.30;;;;;;;9.44;91.83;96241.22;4972960;28;20046;-90
2022/09/27 05:04:35;;;;;;;3.42;1.20;;;;;;;9.44;92.59;96242.03;4949736;28;20035;-92
2022/09/27 05:07:02;;;;;;;2.40;1.25;;;;;;;9.38;90.41;96242.97;4971831;28;20047;-91
2022/09/27 05:09:29;;;;;;;1.90;1.40;;;;;;;9.34;92.02;96247.88;4971817;28;20046;-92
2022/09/27 05:11:55;;;;;;;4.13;1.40;;;;;;;9.32;91.05;96238.69;4972544;28;20039;-91
2022/09/27 05:14:23;;;;;;;3.83;1.27;;;;;;;9.30;91.38;96236.31;4969722;28;20051;-89
2022/09/27 05:16:54;;;;;;;3.13;1.30;;;;;;;9.35;91.01;96241.59;4973630;28;20459;-90
2022/09/27 05:19:21;;;;;;;2.72;1.40;;;;;;;9.35;95.16;96246.81;4952841;28;20483;-90
2022/09/27 05:21:47;;;;;;;3.75;1.40;;;;;;;9.37;92.43;96255.25;4971164;28;20431;-90
2022/09/27 05:24:14;;;;;;;2.67;1.20;;;;;;;9.32;92.79;96249.94;4973147;28;20042;-91
2022/09/27 05:26:40;;;;;;;2.08;1.20;;;;;;;9.27;90.75;96246.44;4954792;28;20049;-91
2022/09/27 05:29:07;;;;;;;2.08;1.17;;;;;;;9.33;91.31;96256.75;4976913;28;20039;-91
2022/09/27 05:31:34;;;;;;;2.65;1.40;;;;;;;9.41;92.14;96260.00;4971317;28;20047;-88
2022/09/27 05:34:01;;;;;;;2.22;1.33;;;;;;;9.37;92.11;96249.22;4975427;28;20050;-90
2022/09/27 05:36:27;;;;;;;2.65;1.30;;;;;;;9.37;91.23;96254.47;4976471;28;20176;-90
2022/09/27 05:38:55;;;;;;;1.48;1.10;;;;;;;9.31;92.89;96258.81;4976821;28;20085;-90
2022/09/27 05:41:22;;;;;;;2.25;1.00;;;;;;;9.36;92.87;96261.53;4971830;28;20121;-91
2022/09/27 05:43:49;;;;;;;2.92;1.58;;;;;;;9.32;93.40;96257.00;4976422;28;20727;-90
2022/09/27 05:46:16;;;;;;;1.85;1.10;;;;;;;9.34;93.23;96260.94;4975405;28;20051;-92
2022/09/27 05:48:43;;;;;;;4.22;1.55;;;;;;;9.35;94.34;96269.59;4975814;28;20514;-90
2022/09/27 05:51:10;;;;;;;1.95;1.23;;;;;;;9.39;93.74;96257.63;4974892;28;20125;-90
2022/09/27 05:53:37;;;;;;;2.45;1.20;;;;;;;9.33;92.84;96251.53;4975147;28;20035;-89
2022/09/27 05:56:04;;;;;;;3.03;1.65;;;;;;;9.49;93.16;96275.34;4958038;28;20582;-91
2022/09/27 05:58:31;;;;;;;3.97;1.63;;;;;;;9.55;92.05;96277.78;4974736;28;20051;-90
2022/09/27 06:00:57;;;;;;;3.35;1.63;;;;;;;9.61;92.42;96278.66;4976512;28;20061;-90
2022/09/27 06:03:24;;;;;;;2.03;1.58;;;;;;;9.60;92.14;96275.25;4973594;28;20054;-91
2022/09/27 06:05:51;;;;;;;2.35;1.65;;;;;;;9.55;92.81;96279.63;4969768;28;20526;-91
2022/09/27 06:08:20;;;;;;;2.47;1.90;;;;;;;9.64;92.24;96278.19;4973432;28;20143;-91
2022/09/27 06:10:47;;;;;;;2.38;1.38;;;;;;;9.62;92.97;96285.50;4975056;28;20035;-91
2022/09/27 06:13:18;;;;;;;2.53;1.80;;;;;;;9.67;93.54;96282.16;4975714;28;20494;-91
2022/09/27 06:15:50;;;;;;;2.72;1.48;;;;;;;9.68;92.20;96283.75;4964751;28;20055;-91
2022/09/27 06:18:17;;;;;;;3.33;1.67;;;;;;;9.70;92.33;96292.94;4958236;28;20129;-91
2022/09/27 06:20:45;;;;;;;3.75;1.67;;;;;;;9.78;92.58;96292.56;4974999;28;20482;-90
2022/09/27 06:23:21;;;;;;;2.05;1.55;;;;;;;9.64;92.58;96288.66;4973984;28;20038;-90
2022/09/27 06:25:50;;;;;;;2.40;1.73;;;;;;;9.78;91.24;96305.66;4961817;28;20049;-90
2022/09/27 06:28:18;;;;;;;4.85;1.88;;;;;;;9.75;91.69;96295.63;4975485;28;20062;-89
2022/09/27 06:30:49;;;;;;;1.90;1.45;;;;;;;9.70;92.87;96289.53;4975767;28;20042;-90
2022/09/27 06:33:18;;;;;;;4.45;1.50;;;;;;;9.69;91.77;96291.34;4948670;28;20149;-90
2022/09/27 06:35:48;;;;;;;2.00;1.65;;;;;;;9.73;92.37;96296.91;4956942;28;20055;-89
2022/09/27 06:38:17;;;;;;;2.72;1.52;;;;;;;9.80;92.71;96306.19;4973769;28;20057;-89
2022/09/27 06:40:45;;;;;;;3.97;1.52;;;;;;;9.68;89.95;96302.88;4975495;28;20062;-91
2022/09/27 06:43:19;;;;;;;1.30;1.10;;;;;;;9.57;90.51;96303.72;4951682;29;20048;-91
2022/09/27 06:45:47;;;;;;;1.88;1.50;;;;;;;9.57;92.73;96303.72;4955897;28;20043;-92
2022/09/27 06:48:15;;;;;;;1.90;1.55;;;;;;;9.45;92.95;96303.00;4967414;28;20772;-90
2022/09/27 06:50:45;;;;;;;2.55;1.50;;;;;;;9.59;94.87;96320.75;4972271;28;20503;-90
2022/09/27 06:53:14;;;;;;;1.23;1.13;;;;;;;9.37;94.28;96315.44;4969385;28;20043;-91
2022/09/27 06:55:42;;;;;;;2.00;1.20;;;;;;;9.36;93.76;96328.75;4950644;28;20055;-90
2022/09/27 07:00:57;;;;;;;2.28;1.30;;;;;;;9.34;94.07;96333.41;4972324;28;20058;-92
2022/09/27 07:03:31;;;;;;;1.67;1.30;;;;;;;9.34;93.56;96344.66;4956401;28;20505;-90
2022/09/27 07:06:14;;;;;;;1.20;1.10;;;;;;;9.35;92.86;96353.31;4972414;28;20137;-90
2022/09/27 07:08:42;;;;;;;1.52;1.40;;;;;;;9.38;92.35;96352.84;4973948;28;20086;-90
2022/09/27 07:11:09;;;;;;;1.55;1.00;;;;;;;9.24;90.96;96352.34;4969057;28;20035;-90
2022/09/27 07:13:39;;;;;;;1.10;1.00;;;;;;;9.25;89.11;96361.78;4972052;28;20532;-90
2022/09/27 07:16:06;;;;;;;1.63;0.90;;;;;;;9.31;87.89;96366.06;4969704;28;20046;-90
2022/09/27 07:18:33;;;;;;;1.33;1.00;;;;;;;9.38;89.63;96369.34;4969812;28;20804;-90
2022/09/27 07:21:03;;;;;;;1.42;1.00;;;;;;;9.55;88.93;96373.84;4968908;28;20046;-90
2022/09/27 07:23:31;;;;;;;0.95;0.95;;;;;;;9.62;87.72;96382.34;4972625;28;20051;-90
2022/09/27 07:26:03;;;;;;;0.80;0.80;;;;;;;9.55;87.20;96392.94;4970842;28;20065;-88
2022/09/27 07:28:30;;;;;;;0.88;0.88;;;;;;;9.51;86.43;96393.66;4969918;28;20043;-91
2022/09/27 07:30:57;;;;;;;2.55;1.10;;;;;;;9.54;88.01;96382.72;4952194;28;20047;-90
2022/09/27 07:33:25;;;;;;;0.70;0.70;;;;;;;9.45;87.97;96400.59;4955547;28;20283;-91
2022/09/27 07:35:52;;;;;;;1.58;0.98;;;;;;;9.50;87.13;96402.53;4970816;28;20108;-90
2022/09/27 07:38:19;;;;;;;1.80;0.80;;;;;;;9.69;87.46;96411.78;4974499;28;20074;-90
2022/09/27 07:40:46;;;;;;;1.17;0.85;;;;;;;9.84;86.87;96406.81;4968698;28;20043;-90
2022/09/27 07:43:13;;;;;;;1.50;1.00;;;;;;;9.93;86.20;96408.00;4968869;28;20055;-90
2022/09/27 07:45:40;;;;;;;0.98;0.88;;;;;;;10.05;84.57;96396.66;4971768;28;20143;-90
2022/09/27 07:48:12;;;;;;;0.80;0.80;;;;;;;10.35;82.89;96410.28;4955681;28;20039;-89
2022/09/27 07:50:39;;;;;;;1.55;0.80;;;;;;;10.55;82.95;96404.53;4972191;28;20077;-90
2022/09/27 07:53:05;;;;;;;0.80;0.80;;;;;;;10.69;81.60;96420.75;4973509;28;20050;-89
2022/09/27 07:55:32;;;;;;;1.80;0.90;;;;;;;10.50;80.78;96411.56;4970052;28;20057;-89
2022/09/27 07:58:17;;;;;;;1.52;1.00;;;;;;;10.57;82.62;96433.16;4968988;28;20053;-89
2022/09/27 08:00:46;;;;;;;1.17;0.95;;;;;;;10.47;82.50;96440.84;4972048;28;20565;-88
2022/09/27 08:03:16;;;;;;;2.78;0.80;;;;;;;10.37;80.46;96434.41;4970637;28;20058;-90
2022/09/27 08:05:46;;;;;;;0.63;0.63;;;;;;;10.38;81.67;96443.88;4970344;28;20058;-89
2022/09/27 08:08:14;;;;;;;0.73;0.73;;;;;;;10.28;80.11;96462.06;4953101;28;20145;-89
2022/09/27 08:10:43;;;;;;;1.08;0.80;;;;;;;10.21;80.32;96450.91;4971884;28;20043;-90
2022/09/27 08:13:11;;;;;;;0.95;0.90;;;;;;;10.26;81.64;96452.84;4970972;28;20494;-89
2022/09/27 08:15:38;;;;;;;0.80;0.80;;;;;;;10.27;80.92;96460.47;4969548;28;20525;-90
2022/09/27 08:18:08;;;;;;;1.05;0.98;;;;;;;10.37;83.05;96458.00;4969665;28;20118;-90
2022/09/27 08:20:36;;;;;;;1.08;0.80;;;;;;;10.30;81.17;96469.69;4968499;28;20442;-90
2022/09/27 08:23:03;;;;;;;1.33;0.75;;;;;;;10.25;81.22;96462.53;4971592;28;20047;-91
2022/09/27 08:25:30;;;;;;;0.95;0.90;;;;;;;10.17;81.46;96470.75;4971079;28;20055;-89
2022/09/27 08:28:01;;;;;;;1.75;1.10;;;;;;;10.02;81.87;96463.44;4969796;28;20043;-89
2022/09/27 08:30:31;;;;;;;1.00;0.90;;;;;;;10.18;82.03;96474.94;4983760;28;20388;-91
2022/09/27 08:33:01;;;;;;;1.33;1.13;;;;;;;10.11;82.40;96469.06;4955529;28;20130;-88
2022/09/27 08:35:32;;;;;;;0.90;0.90;;;;;;;10.16;81.22;96477.03;4972158;28;20051;-90
2022/09/27 08:38:02;;;;;;;0.93;0.82;;;;;;;10.12;82.34;96483.75;4971519;28;20046;-89
2022/09/27 08:40:53;;;;;;;0.87;0.87;;;;;;;10.05;81.73;96478.66;4971840;28;20462;-88
2022/09/27 08:43:31;;;;;;;1.87;1.20;;;;;;;10.18;82.61;96482.81;4967626;28;20290;-90
2022/09/27 08:46:23;;;;;;;3.33;1.02;;;;;;;10.14;81.17;96490.38;4969859;28;20113;-89
2022/09/27 08:48:58;;;;;;;1.10;1.00;;;;;;;10.03;79.95;96474.69;4973082;28;20043;-89
2022/09/27 08:51:31;;;;;;;0.80;0.80;;;;;;;10.24;79.90;96492.38;4962160;28;20057;-89
2022/09/27 08:54:14;;;;;;;2.15;1.00;;;;;;;10.38;79.87;96500.75;4969899;28;20050;-88
2022/09/27 08:56:41;;;;;;;1.75;1.25;;;;;;;10.51;80.87;96497.03;4969303;28;20069;-90
2022/09/27 08:59:20;;;;;;;1.65;0.90;;;;;;;10.44;80.59;96494.56;4972418;28;20054;-90
2022/09/27 09:01:52;;;;;;;1.73;0.82;;;;;;;10.40;80.05;96494.22;4968703;28;20056;-88
2022/09/27 09:04:38;;;;;;;1.30;0.93;;;;;;;10.39;80.42;96500.50;4970867;28;20047;-89
2022/09/27 09:07:46;;;;;;;0.95;0.80;;;;;;;10.47;78.36;96506.38;4970034;28;20059;-89
2022/09/27 09:14:34;;;;;;;0.80;0.80;;;;;;;10.64;76.88;96525.53;4929360;28;20051;-89
2022/09/27 09:17:35;;;;;;;1.27;0.98;;;;;;;10.86;76.29;96521.19;4969223;28;20290;-89
2022/09/27 09:20:33;;;;;;;;;;;;;;;11.14;75.37;96511.59;4971249;28;20047;-89
2022/09/27 09:23:24;;;;;;;0.93;0.90;;;;;;;11.20;73.00;96508.78;4969123;28;19929;-89
2022/09/27 09:26:06;;;;;;;;;;;;;;;11.45;74.20;96510.97;4969737;28;20043;-91
2022/09/27 09:29:07;;;;;;;2.08;1.20;;;;;;;11.63;74.76;96511.69;4969585;28;19922;-91
2022/09/27 09:32:08;;;;;;;1.05;0.95;;;;;;;11.61;72.65;96503.28;4971249;28;20042;-91
2022/09/27 09:34:42;;;;;;;1.30;0.90;;;;;;;11.63;72.03;96514.31;4969951;28;20574;-90
2022/09/27 09:37:18;;;;;;;0.80;0.80;;;;;;;11.72;71.64;96508.41;4966679;28;20782;-89
2022/09/27 09:40:01;;;;;;;1.02;0.65;;;;;;;11.82;71.54;96501.72;4955273;28;20454;-90
2022/09/27 09:42:45;;;;;;;1.23;1.13;;;;;;;12.12;71.74;96530.16;4966928;28;20043;-90
2022/09/27 09:45:32;;;;;;;0.70;0.70;;;;;;;12.04;68.48;96503.25;4955602;28;20047;-90
2022/09/27 09:48:35;;;;;;;1.05;0.80;;;;;;;12.10;68.92;96513.84;4967814;28;20523;-90
2022/09/27 09:51:09;;;;;;;2.30;0.70;;;;;;;12.24;71.09;96504.53;4970556;28;20042;-90
2022/09/27 09:53:47;;;;;;;0.82;0.77;;;;;;;11.98;68.63;96496.38;4955177;28;20113;-89
2022/09/27 09:56:31;;;;;;;0.80;0.77;;;;;;;11.82;69.45;96499.91;4954786;28;20061;-90
2022/09/27 09:59:03;;;;;;;3.95;1.20;;;;;;;11.55;71.63;96502.44;4971716;28;20062;-90
2022/09/27 10:01:44;;;;;;;1.92;1.00;;;;;;;11.31;71.33;96503.69;4969896;28;20113;-88
2022/09/27 10:04:20;;;;;;;1.13;1.00;;;;;;;11.17;75.12;96511.13;4973074;28;20133;-87
2022/09/27 10:06:49;;;;;;;2.45;0.98;;;;;;;11.02;75.86;96508.28;4965464;28;20446;-88
2022/09/27 10:09:26;;;;;;;1.70;0.93;;;;;;;10.98;77.51;96507.97;4953881;28;20200;-88
2022/09/27 10:11:53;;;;;;;1.23;1.10;;;;;;;10.79;77.96;96515.28;4956751;28;20047;-90
2022/09/27 10:14:21;;;;;;;1.20;0.80;;;;;;;10.78;78.93;96513.69;4956553;28;20043;-89
2022/09/27 10:16:58;;;;;;;1.25;0.93;;;;;;;10.70;79.50;96516.72;4956852;28;20090;-89
2022/09/27 10:19:31;;;;;;;1.13;1.08;;;;;;;10.75;80.00;96514.19;4953021;28;20602;-89
2022/09/27 10:22:17;;;;;;;1.35;0.95;;;;;;;10.67;81.00;96517.19;4951936;28;20897;-90
2022/09/27 10:24:56;;;;;;;1.27;0.80;;;;;;;10.77;80.32;96527.84;4953497;28;20051;-89
2022/09/27 10:27:45;;;;;;;1.08;0.80;;;;;;;10.76;81.76;96531.50;4950620;28;20136;-90
2022/09/27 10:30:32;;;;;;;2.58;1.10;;;;;;;10.83;82.10;96532.13;4958010;28;20086;-88
2022/09/27 10:33:12;;;;;;;0.98;0.80;;;;;;;10.91;82.18;96534.34;4953520;28;20574;-88
2022/09/27 10:35:44;;;;;;;2.20;0.85;;;;;;;10.97;80.93;96533.41;4953856;28;20148;-87
2022/09/27 10:38:33;;;;;;;2.33;1.08;;;;;;;11.16;79.95;96538.41;4954115;28;20046;-88
2022/09/27 10:41:39;;;;;;;1.42;0.98;;;;;;;11.28;78.14;96533.84;4935748;29;20043;-87
2022/09/27 10:44:16;;;;;;;1.23;1.13;;;;;;;11.31;79.26;96530.72;4933645;28;20081;-86
2022/09/27 10:46:47;;;;;;;1.50;1.00;;;;;;;11.26;79.31;96535.91;4933906;28;20039;-86
2022/09/27 10:49:39;;;;;;;3.13;1.58;;;;;;;11.11;77.30;96543.56;4935450;29;20043;-87
2022/09/27 10:52:19;;;;;;;1.02;0.70;;;;;;;11.09;74.33;96556.91;4949111;28;20048;-88
2022/09/27 10:54:55;;;;;;;3.97;1.07;;;;;;;11.37;74.55;96553.38;4948750;28;20054;-86
2022/09/27 10:57:27;;;;;;;1.23;0.80;;;;;;;11.58;73.85;96549.22;4953782;28;20098;-87
2022/09/27 11:00:03;;;;;;;1.10;0.80;;;;;;;11.79;71.70;96534.47;4955200;28;20431;-88
2022/09/27 11:02:36;;;;;;;1.63;0.90;;;;;;;11.90;72.66;96535.44;4956411;28;20055;-86
2022/09/27 11:05:30;;;;;;;0.90;0.90;;;;;;;11.85;71.46;96536.16;4953699;28;20066;-86
2022/09/27 11:08:22;;;;;;;0.70;0.70;;;;;;;11.96;71.97;96553.63;4951795;28;20055;-87
2022/09/27 11:11:12;;;;;;;2.00;0.90;;;;;;;12.04;71.18;96537.44;4950223;29;20055;-86
2022/09/27 11:13:41;;;;;;;1.05;0.80;;;;;;;12.27;70.50;96538.19;4942740;29;20048;-87
2022/09/27 11:16:22;;;;;;;1.67;1.00;;;;;;;12.58;71.42;96532.16;4954134;29;20043;-88
2022/09/27 11:19:36;;;;;;;1.00;0.73;;;;;;;12.61;66.49;96538.00;4953289;29;20043;-86
2022/09/27 11:22:37;;;;;;;1.20;0.55;;;;;;;12.55;66.55;96540.56;4953698;29;20039;-87
2022/09/27 11:26:21;;;;;;;2.05;0.70;;;;;;;12.15;63.98;96535.69;4948558;28;20062;-86
2022/09/27 11:29:09;;;;;;;0.60;0.60;;;;;;;11.88;61.01;96543.56;4931264;29;20047;-87
2022/09/27 11:32:13;;;;;;;0.70;0.70;;;;;;;11.84;62.00;96547.72;4947607;29;20392;-85
2022/09/27 11:35:03;;;;;;;1.15;0.70;;;;;;;12.21;63.25;96542.59;4953361;29;20074;-85
2022/09/27 11:38:09;;;;;;;1.50;0.90;;;;;;;12.64;63.58;96553.25;4947183;28;20062;-85
2022/09/27 11:41:02;;;;;;;1.75;0.82;;;;;;;12.73;64.13;96543.88;4951087;29;20067;-86
2022/09/27 11:43:54;;;;;;;1.17;0.93;;;;;;;12.61;63.63;96545.88;4949507;29;20114;-90
2022/09/27 11:46:31;;;;;;;1.15;0.70;;;;;;;12.19;66.84;96557.03;4951119;29;20521;-87
2022/09/27 11:49:31;;;;;;;1.02;0.60;;;;;;;12.07;70.58;96551.13;4950162;29;20098;-89
2022/09/27 11:52:28;;;;;;;2.17;1.00;;;;;;;11.81;71.23;96550.81;4948186;29;20043;-89
2022/09/27 11:55:19;;;;;;;0.88;0.70;;;;;;;11.81;73.07;96548.19;4953621;29;20448;-88
2022/09/27 11:58:07;;;;;;;0.60;0.60;;;;;;;11.96;72.02;96552.84;4949492;29;20042;-88
2022/09/27 12:01:05;;;;;;;1.10;0.93;;;;;;;11.90;69.76;96546.72;4944967;29;20059;-88
2022/09/27 12:03:47;;;;;;;3.85;0.80;;;;;;;12.22;71.84;96549.44;4923236;29;20043;-88
2022/09/27 12:07:18;;;;;;;1.45;0.70;;;;;;;12.36;68.44;96539.34;4949968;28;20458;-89
2022/09/27 12:10:00;;;;;;;0.95;0.60;;;;;;;12.24;68.74;96536.88;4900682;29;20120;-88
2022/09/27 12:12:37;;;;;;;1.88;0.80;;;;;;;12.17;67.83;96553.84;4931297;29;20051;-90
2022/09/27 12:15:15;;;;;;;1.85;0.73;;;;;;;12.16;65.57;96544.38;4935991;28;20066;-88
2022/09/27 12:17:49;;;;;;;6.68;0.90;;;;;;;12.41;65.54;96543.84;4955305;28;20043;-88
2022/09/27 12:20:29;;;;;;;4.78;0.70;;;;;;;12.77;61.76;96539.69;4972070;28;20126;-88
2022/09/27 12:23:04;;;;;;;0.82;0.70;;;;;;;13.29;61.24;96531.91;4969225;28;20039;-89
2022/09/27 12:25:41;;;;;;;1.45;0.60;;;;;;;13.45;60.76;96545.97;4971524;28;20055;-89
2022/09/27 12:28:28;;;;;;;1.08;0.70;;;;;;;13.39;62.04;96552.25;4952217;28;20053;-89